NCAR-RAP Real-Time Weather Data

Output produced by METARs form (12 May 2021  11:37 UTC)
found at http://weather.rap.ucar.edu/surface/
 
KCLT 121052Z 03013G20KT 8SM -RA OVC037 14/08 A3016 RMK AO2 RAB36 SLP209 P0000 T01390078
KCLT 121013Z 03013KT 10SM OVC030 16/07 A3013 RMK AO2 T01560072
KCLT 120952Z 04011KT 10SM BKN028 OVC055 16/09 A3012 RMK AO2 SLP193 T01560094
KCLT 120945Z 04009KT 10SM BKN026 OVC055 16/10 A3011 RMK AO2 T01560100
KCLT 120852Z 03009KT 10SM FEW038 SCT046 OVC055 16/14 A3010 RMK AO2 SLP188 60002 T01610139 55004
KCLT 120752Z 05007KT 10SM OVC055 17/14 A3010 RMK AO2 RAE46 SLP185 P0001 T01720139
KCLT 120652Z 09005KT 9SM -RA BKN055 BKN070 OVC100 18/14 A3011 RMK AO2 RAB12 SLP188 P0001 T01780139
KCLT 120552Z 09005KT 9SM SCT060 OVC090 19/12 A3012 RMK AO2 SLP191 T01890122 10206 20189 58005
KCLT 120452Z 09006KT 10SM OVC055 19/13 A3012 RMK AO2 SLP193 T01890128 402280144
KCLT 120352Z 10006KT 10SM BKN080 OVC120 19/13 A3013 RMK AO2 SLP196 T01940128
KCLT 120252Z 11006KT 10SM FEW070 OVC100 19/12 A3013 RMK AO2 SLP198 T01940122 53016
KCLT 120152Z 08004KT 10SM SCT070 BKN110 OVC250 20/12 A3012 RMK AO2 SLP193 T02000122
KCLT 120052Z VRB05KT 10SM FEW075 SCT095 BKN250 20/12 A3008 RMK AO2 SLP179 T02000122
KCLT 112352Z 02007KT 10SM FEW060 SCT075 SCT100 BKN250 20/12 A3008 RMK AO2 SLP182 T02000117 10228 20200 58004
KCLT 112252Z VRB06KT 10SM FEW045 SCT080 BKN250 22/11 A3008 RMK AO2 SLP180 T02170111
KCLT 112152Z VRB03KT 10SM FEW045 SCT080 SCT150 BKN250 22/12 A3010 RMK AO2 SLP187 T02220117
KCLT 112052Z 02007KT 10SM SCT045 SCT150 BKN200 BKN250 22/12 A3009 RMK AO2 SLP185 T02170122 58006
KCLT 111952Z 01007KT 10SM BKN046 BKN200 OVC250 22/12 A3011 RMK AO2 SLP189 T02220117